createdAt,value
2018-08-22T00:01:46.279Z,54.30
2018-08-22T00:04:16.136Z,54.40
2018-08-22T00:06:44.626Z,54.30
2018-08-22T00:09:13.396Z,54.30
2018-08-22T00:11:42.693Z,54.30
2018-08-22T00:14:11.306Z,54.30
2018-08-22T00:16:40.767Z,54.30
2018-08-22T00:19:09.180Z,54.30
2018-08-22T00:21:38.191Z,54.30
2018-08-22T00:24:06.604Z,54.30
2018-08-22T00:26:35.113Z,54.30
2018-08-22T00:29:03.693Z,54.30
2018-08-22T00:31:32.153Z,54.30
2018-08-22T00:34:00.711Z,54.30
2018-08-22T00:36:29.126Z,54.30
2018-08-22T00:38:57.660Z,54.30
2018-08-22T00:41:26.244Z,54.30
2018-08-22T00:43:54.938Z,54.30
2018-08-22T00:46:24.436Z,54.30
2018-08-22T00:48:53.077Z,54.30
2018-08-22T00:51:21.693Z,54.30
2018-08-22T00:53:50.152Z,54.30
2018-08-22T00:56:18.739Z,54.30
2018-08-22T00:58:47.287Z,53.80
2018-08-22T01:01:15.734Z,54.30
2018-08-22T01:03:44.240Z,54.40
2018-08-22T01:06:12.733Z,54.30
2018-08-22T01:08:41.301Z,54.30
2018-08-22T01:11:09.812Z,54.30
2018-08-22T01:13:38.441Z,54.40
2018-08-22T01:16:06.884Z,54.40
2018-08-22T01:18:35.537Z,54.30
2018-08-22T01:21:04.094Z,54.30
2018-08-22T01:23:32.549Z,54.30
2018-08-22T01:26:01.101Z,54.30
2018-08-22T01:28:29.559Z,55.00
2018-08-22T01:30:58.165Z,54.30
2018-08-22T01:33:26.624Z,54.40
2018-08-22T01:35:55.843Z,54.80
2018-08-22T01:38:24.923Z,54.30
2018-08-22T01:40:53.406Z,54.30
2018-08-22T01:43:21.900Z,54.40
2018-08-22T01:45:50.533Z,54.30
2018-08-22T01:48:19.069Z,54.30
2018-08-22T01:50:47.860Z,54.40
2018-08-22T01:53:16.265Z,54.30
2018-08-22T01:55:44.696Z,54.40
2018-08-22T01:58:13.143Z,54.30
2018-08-22T02:00:41.649Z,54.30
2018-08-22T02:03:10.096Z,54.30
2018-08-22T02:05:38.902Z,54.30
2018-08-22T02:08:07.349Z,54.30
2018-08-22T02:10:35.936Z,54.30
2018-08-22T02:13:04.305Z,54.30
2018-08-22T02:15:32.740Z,54.30
2018-08-22T02:18:01.245Z,54.30
2018-08-22T02:20:29.752Z,54.30
2018-08-22T02:22:58.197Z,54.30
2018-08-22T02:25:26.634Z,54.30
2018-08-22T02:27:55.090Z,54.30
2018-08-22T02:30:24.179Z,54.30
2018-08-22T02:32:52.583Z,54.30
2018-08-22T02:35:20.965Z,54.40
2018-08-22T02:37:49.436Z,54.40
2018-08-22T02:40:17.963Z,54.30
2018-08-22T02:42:46.418Z,54.40
2018-08-22T02:45:14.929Z,54.40
2018-08-22T02:47:43.413Z,54.40
2018-08-22T02:50:11.881Z,54.30
2018-08-22T02:52:40.460Z,54.30
2018-08-22T02:55:09.153Z,54.30
2018-08-22T02:57:39.912Z,54.30
2018-08-22T03:00:08.444Z,54.30
2018-08-22T03:02:37.075Z,54.40
2018-08-22T03:05:05.555Z,54.40
2018-08-22T03:07:35.395Z,54.30
2018-08-22T03:10:07.096Z,54.30
2018-08-22T03:12:35.741Z,54.40
2018-08-22T03:15:04.247Z,54.30
2018-08-22T03:17:32.757Z,54.40
2018-08-22T03:20:01.189Z,54.30
2018-08-22T03:22:29.790Z,54.40
2018-08-22T03:24:58.312Z,54.30
2018-08-22T03:27:26.797Z,54.30
2018-08-22T03:29:55.323Z,54.30
2018-08-22T03:32:23.856Z,54.40
2018-08-22T03:34:52.333Z,54.30
2018-08-22T03:37:20.847Z,54.30
2018-08-22T03:39:49.297Z,54.30
2018-08-22T03:42:17.842Z,54.30
2018-08-22T03:44:46.371Z,54.30
2018-08-22T03:47:14.993Z,54.30
2018-08-22T03:49:43.661Z,54.30
2018-08-22T03:52:12.081Z,54.30
2018-08-22T03:54:40.986Z,54.30
2018-08-22T03:57:09.433Z,54.30
2018-08-22T03:59:38.107Z,54.40
2018-08-22T04:02:06.554Z,54.30
2018-08-22T04:04:35.233Z,54.40
2018-08-22T04:07:03.696Z,54.40
2018-08-22T04:09:32.216Z,54.30
2018-08-22T04:12:00.693Z,54.50
2018-08-22T04:14:29.169Z,54.30
2018-08-22T04:16:58.214Z,54.30
2018-08-22T04:19:26.840Z,54.40
2018-08-22T04:21:55.317Z,54.30
2018-08-22T04:24:23.992Z,54.40
2018-08-22T04:26:52.533Z,54.40
2018-08-22T04:29:20.997Z,54.30
2018-08-22T04:31:49.655Z,54.30
2018-08-22T04:34:18.157Z,54.30
2018-08-22T04:36:46.694Z,54.40
2018-08-22T04:39:15.133Z,54.30
2018-08-22T04:41:43.595Z,54.30
2018-08-22T04:44:12.183Z,54.30
2018-08-22T04:46:40.861Z,54.30
2018-08-22T04:49:09.314Z,54.40
2018-08-22T04:51:37.868Z,54.30
2018-08-22T04:54:06.515Z,54.30
2018-08-22T04:56:35.157Z,54.30
2018-08-22T04:59:03.691Z,54.30
2018-08-22T05:01:32.144Z,54.40
2018-08-22T05:04:00.666Z,54.30
2018-08-22T05:06:29.192Z,54.40
2018-08-22T05:08:57.596Z,54.90
2018-08-22T05:11:26.566Z,54.40
2018-08-22T05:13:55.555Z,54.30
2018-08-22T05:16:24.024Z,54.40
2018-08-22T05:18:52.476Z,54.40
2018-08-22T05:21:21.156Z,54.40
2018-08-22T05:23:49.553Z,54.30
2018-08-22T05:26:18.028Z,54.40
2018-08-22T05:28:46.627Z,54.40
2018-08-22T05:31:15.149Z,54.40
2018-08-22T05:33:43.695Z,54.30
2018-08-22T05:36:12.156Z,54.40
2018-08-22T05:38:40.765Z,54.40
2018-08-22T05:41:09.342Z,54.40
2018-08-22T05:43:37.967Z,54.40
2018-08-22T05:46:06.481Z,54.40
2018-08-22T05:48:34.899Z,54.40
2018-08-22T05:51:03.335Z,54.40
2018-08-22T05:53:31.873Z,54.40
2018-08-22T05:56:00.293Z,54.40
2018-08-22T05:58:28.849Z,54.30
2018-08-22T06:00:57.335Z,54.30
2018-08-22T06:03:26.019Z,54.30
2018-08-22T06:05:54.568Z,54.90
2018-08-22T06:08:23.340Z,54.30
2018-08-22T06:10:51.814Z,54.80
2018-08-22T06:13:20.246Z,54.30
2018-08-22T06:15:48.855Z,54.30
2018-08-22T06:18:17.225Z,54.40
2018-08-22T06:20:45.748Z,55.00
2018-08-22T06:23:14.128Z,54.30
2018-08-22T06:25:42.603Z,54.30
2018-08-22T06:28:11.264Z,54.40
2018-08-22T06:30:39.830Z,54.40
2018-08-22T06:33:08.303Z,54.30
2018-08-22T06:35:36.775Z,54.30
2018-08-22T06:38:05.226Z,54.30
2018-08-22T06:40:33.823Z,54.30
2018-08-22T06:43:02.385Z,54.30
2018-08-22T06:45:30.756Z,54.30
2018-08-22T06:47:59.531Z,54.40
2018-08-22T06:50:28.033Z,54.30
2018-08-22T06:52:56.479Z,54.30
2018-08-22T06:55:24.944Z,54.30
2018-08-22T06:57:53.510Z,54.30
2018-08-22T07:00:21.904Z,54.30
2018-08-22T07:02:50.400Z,54.30
2018-08-22T07:05:18.815Z,54.30
2018-08-22T07:07:47.337Z,54.30
2018-08-22T07:10:15.766Z,54.30
2018-08-22T07:12:44.605Z,54.30
2018-08-22T07:15:13.081Z,54.30
2018-08-22T07:17:42.598Z,54.30
2018-08-22T07:20:11.090Z,54.30
2018-08-22T07:22:40.356Z,54.30
2018-08-22T07:25:08.766Z,54.30
2018-08-22T07:27:37.815Z,54.30
2018-08-22T07:30:06.454Z,54.30
2018-08-22T07:32:34.925Z,54.30
2018-08-22T07:35:03.402Z,54.30
2018-08-22T07:37:31.901Z,54.30
2018-08-22T07:40:00.962Z,54.30
2018-08-22T07:42:29.736Z,54.30
2018-08-22T07:44:58.655Z,54.30
2018-08-22T07:47:31.452Z,54.30
2018-08-22T07:50:03.848Z,54.30
2018-08-22T07:52:34.748Z,54.30
2018-08-22T07:55:03.416Z,54.30
2018-08-22T07:57:31.895Z,54.30
2018-08-22T08:00:02.658Z,54.90
2018-08-22T08:02:31.526Z,54.30
2018-08-22T08:05:00.245Z,54.30
2018-08-22T08:07:28.944Z,54.30
2018-08-22T08:09:57.354Z,54.30
2018-08-22T08:12:32.099Z,54.30
2018-08-22T08:15:05.003Z,54.30
2018-08-22T08:17:33.637Z,54.30
2018-08-22T08:20:02.474Z,54.40
2018-08-22T08:22:31.133Z,54.30
2018-08-22T08:24:59.512Z,54.30
2018-08-22T08:27:28.896Z,54.30
2018-08-22T08:29:57.586Z,54.90
2018-08-22T08:32:26.122Z,54.30
2018-08-22T08:34:55.424Z,54.90
2018-08-22T08:37:23.893Z,54.30
2018-08-22T08:39:52.367Z,54.30
2018-08-22T08:42:20.826Z,54.30
2018-08-22T08:44:51.063Z,54.30
2018-08-22T08:47:19.794Z,54.30
2018-08-22T08:49:49.136Z,54.30
2018-08-22T08:52:17.728Z,54.30
2018-08-22T08:54:46.230Z,54.30
2018-08-22T08:57:14.756Z,54.30
2018-08-22T08:59:43.251Z,54.30
2018-08-22T09:02:11.707Z,54.30
2018-08-22T09:04:40.547Z,54.30
2018-08-22T09:07:09.008Z,54.30
2018-08-22T09:09:37.622Z,54.30
2018-08-22T09:12:08.334Z,54.30
2018-08-22T09:14:37.796Z,54.30
2018-08-22T09:17:07.686Z,54.30
2018-08-22T09:19:36.595Z,54.30
2018-08-22T09:22:05.440Z,54.30
2018-08-22T09:24:33.954Z,54.30
2018-08-22T09:27:02.556Z,54.30
2018-08-22T09:29:31.434Z,54.30
2018-08-22T09:32:01.038Z,54.30
2018-08-22T09:34:30.252Z,54.30
2018-08-22T09:37:00.860Z,54.30
2018-08-22T09:39:33.338Z,54.30
2018-08-22T09:42:04.120Z,54.30
2018-08-22T09:44:36.152Z,54.30
2018-08-22T09:47:06.202Z,54.30
2018-08-22T09:49:36.560Z,54.30
2018-08-22T09:52:07.770Z,54.30
2018-08-22T09:54:51.991Z,54.30
2018-08-22T09:57:22.892Z,54.30
2018-08-22T09:59:51.898Z,54.30
2018-08-22T10:02:20.432Z,54.30
2018-08-22T10:04:49.018Z,54.20
2018-08-22T10:07:19.025Z,54.30
2018-08-22T10:09:47.776Z,54.30
2018-08-22T10:12:18.813Z,54.30
2018-08-22T10:14:47.314Z,54.20
2018-08-22T10:17:15.820Z,54.30
2018-08-22T10:19:44.459Z,54.20
2018-08-22T10:22:13.053Z,54.20
2018-08-22T10:24:41.668Z,54.20
2018-08-22T10:27:10.203Z,54.20
2018-08-22T10:29:39.019Z,54.20
2018-08-22T10:32:08.056Z,54.20
2018-08-22T10:34:36.527Z,54.30
2018-08-22T10:37:04.962Z,54.30
2018-08-22T10:39:33.453Z,54.20
2018-08-22T10:42:02.077Z,54.90
2018-08-22T10:44:30.672Z,54.20
2018-08-22T10:46:59.018Z,54.90
2018-08-22T10:49:27.446Z,54.30
2018-08-22T10:51:55.914Z,54.80
2018-08-22T10:54:24.376Z,54.20
2018-08-22T10:56:52.790Z,54.30
2018-08-22T10:59:21.308Z,54.30
2018-08-22T11:01:49.774Z,54.20
2018-08-22T11:04:18.352Z,54.20
2018-08-22T11:06:46.780Z,54.20
2018-08-22T11:09:15.413Z,54.30
2018-08-22T11:11:43.941Z,54.20
2018-08-22T11:14:12.344Z,54.20
2018-08-22T11:16:40.857Z,54.30
2018-08-22T11:19:09.386Z,54.20
2018-08-22T11:21:49.150Z,54.20
2018-08-22T11:24:29.199Z,54.30
2018-08-22T11:27:09.105Z,54.30
2018-08-22T11:29:49.005Z,54.30
2018-08-22T11:32:28.956Z,54.30
2018-08-22T11:34:56.310Z,54.30
2018-08-22T11:37:24.854Z,54.30
2018-08-22T11:39:53.373Z,54.30
2018-08-22T11:42:21.881Z,54.30
2018-08-22T11:44:50.474Z,54.30
2018-08-22T11:47:18.995Z,54.30
2018-08-22T11:49:47.484Z,54.30
2018-08-22T11:52:17.053Z,54.30
2018-08-22T11:54:45.562Z,54.30
2018-08-22T11:57:14.202Z,54.30
2018-08-22T11:59:43.057Z,54.20
2018-08-22T12:02:11.619Z,54.20
2018-08-22T12:04:40.189Z,54.20
2018-08-22T12:07:08.690Z,54.20
2018-08-22T12:09:37.295Z,54.20
2018-08-22T12:12:06.207Z,54.20
2018-08-22T12:14:34.785Z,54.20
2018-08-22T12:17:03.327Z,54.20
2018-08-22T12:19:31.832Z,54.30
2018-08-22T12:22:00.408Z,54.30
2018-08-22T12:24:29.047Z,54.20
2018-08-22T12:26:57.635Z,54.20
2018-08-22T12:29:26.120Z,54.20
2018-08-22T12:31:54.654Z,54.20
2018-08-22T12:34:23.225Z,54.30
2018-08-22T12:36:51.765Z,54.20
2018-08-22T12:39:20.228Z,54.20
2018-08-22T12:41:48.815Z,54.20
2018-08-22T12:44:17.372Z,54.20
2018-08-22T12:46:45.940Z,54.20
2018-08-22T12:49:14.833Z,54.30
2018-08-22T12:51:43.534Z,54.20
2018-08-22T12:54:12.435Z,54.90
2018-08-22T12:56:41.102Z,54.20
2018-08-22T12:59:10.120Z,54.30
2018-08-22T13:01:39.392Z,54.20
2018-08-22T13:04:08.340Z,54.20
2018-08-22T13:06:36.802Z,54.20
2018-08-22T13:09:07.490Z,54.30
2018-08-22T13:11:36.155Z,54.20
2018-08-22T13:14:05.247Z,54.20
2018-08-22T13:16:33.739Z,54.20
2018-08-22T13:19:02.458Z,54.20
2018-08-22T13:21:31.037Z,54.20
2018-08-22T13:23:59.890Z,54.30
2018-08-22T13:26:28.462Z,54.30
2018-08-22T13:28:57.573Z,54.30
2018-08-22T13:31:27.161Z,54.30
2018-08-22T13:33:57.380Z,54.20
2018-08-22T13:36:26.326Z,54.20
2018-08-22T13:38:55.527Z,54.20
2018-08-22T13:41:24.102Z,54.20
2018-08-22T13:43:52.654Z,54.30
2018-08-22T13:46:21.314Z,54.30
2018-08-22T13:48:49.925Z,54.80
2018-08-22T13:51:18.653Z,54.20
2018-08-22T13:53:47.182Z,54.20
2018-08-22T13:56:15.783Z,54.20
2018-08-22T13:58:44.290Z,54.30
2018-08-22T14:01:12.837Z,54.20
2018-08-22T14:03:41.746Z,54.20
2018-08-22T14:06:10.553Z,54.20
2018-08-22T14:08:39.464Z,54.20
2018-08-22T14:11:08.175Z,54.30
2018-08-22T14:13:37.471Z,54.20
2018-08-22T14:16:06.097Z,54.30
2018-08-22T14:18:34.695Z,54.20
2018-08-22T14:21:03.249Z,54.30
2018-08-22T14:23:31.825Z,54.20
2018-08-22T14:26:00.522Z,54.20
2018-08-22T14:28:29.211Z,54.20
2018-08-22T14:30:57.879Z,54.20
2018-08-22T14:33:26.590Z,54.20
2018-08-22T14:35:55.798Z,54.20
2018-08-22T14:38:24.448Z,54.20
2018-08-22T14:40:53.086Z,54.30
2018-08-22T14:43:21.604Z,54.60
2018-08-22T14:45:50.331Z,54.20
2018-08-22T14:48:18.800Z,54.30
2018-08-22T14:50:47.420Z,54.20
2018-08-22T14:53:15.896Z,54.20
2018-08-22T14:55:44.363Z,54.20
2018-08-22T14:58:13.354Z,54.40
2018-08-22T15:00:42.475Z,54.20
2018-08-22T15:03:11.631Z,54.20
2018-08-22T15:05:40.271Z,54.20
2018-08-22T15:08:08.728Z,54.80
2018-08-22T15:10:37.338Z,54.20
2018-08-22T15:13:06.041Z,54.20
2018-08-22T15:15:34.534Z,54.20
2018-08-22T15:18:03.261Z,54.30
2018-08-22T15:20:31.918Z,54.20
2018-08-22T15:23:00.351Z,54.20
2018-08-22T15:25:28.934Z,54.20
2018-08-22T15:27:57.510Z,54.20
2018-08-22T15:30:26.209Z,54.20
2018-08-22T15:32:54.738Z,54.20
2018-08-22T15:35:23.835Z,54.30
2018-08-22T15:37:52.403Z,54.30
2018-08-22T15:40:20.964Z,54.20
2018-08-22T15:42:49.453Z,54.20
2018-08-22T15:45:17.965Z,54.20
2018-08-22T15:47:46.577Z,54.30
2018-08-22T15:50:15.367Z,54.30
2018-08-22T15:52:44.181Z,54.20
2018-08-22T15:55:15.489Z,54.30
2018-08-22T15:58:06.326Z,54.30
2018-08-22T16:00:50.581Z,54.30
2018-08-22T16:03:19.412Z,54.20
2018-08-22T16:05:48.932Z,54.30
2018-08-22T16:08:18.684Z,54.30
2018-08-22T16:10:47.381Z,54.30
2018-08-22T16:13:21.288Z,54.30
2018-08-22T16:15:51.063Z,54.20
2018-08-22T16:18:19.886Z,54.20
2018-08-22T16:20:55.241Z,54.30
2018-08-22T16:23:29.228Z,54.30
2018-08-22T16:25:59.169Z,54.20
2018-08-22T16:28:29.454Z,54.30
2018-08-22T16:30:58.715Z,54.30
2018-08-22T16:33:27.351Z,54.20
2018-08-22T16:35:56.169Z,54.20
2018-08-22T16:38:24.740Z,54.30
2018-08-22T16:40:53.967Z,54.20
2018-08-22T16:43:41.398Z,54.20
2018-08-22T16:46:12.587Z,54.30
2018-08-22T16:48:42.048Z,54.30
2018-08-22T16:51:10.716Z,54.30
2018-08-22T16:53:39.705Z,54.30
2018-08-22T16:56:08.488Z,54.20
2018-08-22T16:58:37.161Z,54.30
2018-08-22T17:01:06.125Z,54.30
2018-08-22T17:03:34.645Z,54.30
2018-08-22T17:06:12.195Z,54.40
2018-08-22T17:08:40.791Z,54.30
2018-08-22T17:11:11.582Z,54.20
2018-08-22T17:13:43.918Z,54.30
2018-08-22T17:16:12.469Z,54.20
2018-08-22T17:18:41.255Z,54.30
2018-08-22T17:21:10.287Z,54.20
2018-08-22T17:23:39.029Z,54.30
2018-08-22T17:26:12.327Z,54.30
2018-08-22T17:28:42.545Z,54.30
2018-08-22T17:31:11.712Z,54.20
2018-08-22T17:33:43.652Z,54.30
2018-08-22T17:36:12.943Z,54.30
2018-08-22T17:38:45.581Z,54.30
2018-08-22T17:41:14.553Z,54.20
2018-08-22T17:43:55.723Z,54.30
2018-08-22T17:46:26.322Z,54.30
2018-08-22T17:48:54.755Z,54.20
2018-08-22T17:51:23.271Z,54.30
2018-08-22T17:53:51.659Z,54.30
2018-08-22T17:56:22.775Z,54.30
2018-08-22T17:58:52.317Z,54.20
2018-08-22T18:01:21.119Z,54.30
2018-08-22T18:03:49.612Z,54.30
2018-08-22T18:06:18.194Z,54.20
2018-08-22T18:08:46.802Z,54.20
2018-08-22T18:11:15.538Z,54.30
2018-08-22T18:13:44.145Z,54.30
2018-08-22T18:16:12.602Z,54.30
2018-08-22T18:18:41.009Z,54.20
2018-08-22T18:21:09.531Z,54.30
2018-08-22T18:23:39.193Z,54.20
2018-08-22T18:26:07.642Z,54.90
2018-08-22T18:28:36.082Z,54.20
2018-08-22T18:31:04.534Z,54.20
2018-08-22T18:33:33.262Z,54.30
2018-08-22T18:36:01.784Z,54.20
2018-08-22T18:38:30.295Z,54.30
2018-08-22T18:41:06.691Z,54.30
2018-08-22T18:43:35.188Z,54.30
2018-08-22T18:46:05.612Z,54.20
2018-08-22T18:48:35.190Z,54.20
2018-08-22T18:51:04.556Z,54.30
2018-08-22T18:53:33.169Z,54.20
2018-08-22T18:56:13.750Z,54.20
2018-08-22T18:58:42.243Z,54.30
2018-08-22T19:01:10.842Z,54.30
2018-08-22T19:03:39.543Z,54.20
2018-08-22T19:06:08.180Z,54.30
2018-08-22T19:08:39.109Z,54.30
2018-08-22T19:11:08.386Z,54.20
2018-08-22T19:13:36.965Z,54.30
2018-08-22T19:16:09.776Z,54.30
2018-08-22T19:18:38.578Z,54.40
2018-08-22T19:21:08.845Z,54.30
2018-08-22T19:23:37.307Z,54.30
2018-08-22T19:26:06.586Z,54.30
2018-08-22T19:29:06.844Z,54.30
2018-08-22T19:31:36.976Z,54.30
2018-08-22T19:34:05.473Z,54.30
2018-08-22T19:36:33.893Z,54.30
2018-08-22T19:39:02.414Z,54.30
2018-08-22T19:41:33.353Z,54.30
2018-08-22T19:44:02.087Z,54.30
2018-08-22T19:46:30.641Z,54.30
2018-08-22T19:49:00.384Z,54.30
2018-08-22T19:51:29.337Z,54.30
2018-08-22T19:54:02.302Z,54.30
2018-08-22T19:56:31.068Z,54.30
2018-08-22T19:58:59.898Z,54.30
2018-08-22T20:01:31.274Z,54.30
2018-08-22T20:03:59.782Z,54.30
2018-08-22T20:06:28.458Z,54.30
2018-08-22T20:08:58.019Z,54.30
2018-08-22T20:11:27.057Z,54.30
2018-08-22T20:13:59.573Z,54.30
2018-08-22T20:16:28.242Z,54.50
2018-08-22T20:19:01.908Z,54.30
2018-08-22T20:21:38.065Z,54.30
2018-08-22T20:24:09.407Z,54.30
2018-08-22T20:26:40.265Z,54.30
2018-08-22T20:29:11.605Z,54.30
2018-08-22T20:31:42.450Z,54.30
2018-08-22T20:34:14.930Z,54.30
2018-08-22T20:36:49.686Z,54.30
2018-08-22T20:39:18.958Z,54.30
2018-08-22T20:41:50.691Z,54.30
2018-08-22T20:44:20.807Z,54.30
2018-08-22T20:46:49.505Z,54.30
2018-08-22T20:49:19.437Z,54.60
2018-08-22T20:51:48.452Z,54.30
2018-08-22T20:54:20.724Z,54.30
2018-08-22T20:56:54.518Z,54.30
2018-08-22T20:59:23.228Z,54.20
2018-08-22T21:02:08.660Z,54.30
2018-08-22T21:04:37.405Z,54.20
2018-08-22T21:07:06.282Z,54.30
2018-08-22T21:09:34.906Z,54.30
2018-08-22T21:12:04.344Z,54.30
2018-08-22T21:14:33.047Z,54.30
2018-08-22T21:17:01.442Z,54.30
2018-08-22T21:19:30.070Z,54.30
2018-08-22T21:21:58.700Z,54.30
2018-08-22T21:24:27.327Z,54.30
2018-08-22T21:26:56.363Z,54.30
2018-08-22T21:29:25.212Z,54.30
2018-08-22T21:31:53.769Z,54.30
2018-08-22T21:34:23.828Z,54.30
2018-08-22T21:36:52.650Z,54.40
2018-08-22T21:39:25.714Z,54.50
2018-08-22T21:41:54.432Z,54.60
2018-08-22T21:44:23.774Z,54.70
2018-08-22T21:46:59.616Z,54.80
2018-08-22T21:49:30.469Z,54.90
2018-08-22T21:52:03.779Z,54.90
2018-08-22T21:54:33.840Z,55.00
2018-08-22T21:57:06.506Z,55.00
2018-08-22T21:59:36.896Z,55.10
2018-08-22T22:02:09.917Z,55.10
2018-08-22T22:04:41.385Z,55.20
2018-08-22T22:07:12.996Z,55.20
2018-08-22T22:09:47.208Z,55.30
2018-08-22T22:12:23.612Z,55.40
2018-08-22T22:14:55.215Z,55.50
2018-08-22T22:17:28.071Z,55.60
2018-08-22T22:20:03.744Z,55.60
2018-08-22T22:22:38.113Z,55.60
2018-08-22T22:25:10.558Z,55.60
2018-08-22T22:27:45.189Z,55.50
2018-08-22T22:30:20.556Z,55.50
2018-08-22T22:32:53.737Z,55.50
2018-08-22T22:35:28.189Z,55.80
2018-08-22T22:38:02.323Z,55.50
2018-08-22T22:40:33.025Z,55.50
2018-08-22T22:43:02.679Z,55.40
2018-08-22T22:45:32.942Z,55.40
2018-08-22T22:48:06.219Z,55.50
2018-08-22T22:50:35.493Z,55.40
2018-08-22T22:53:08.668Z,55.40
2018-08-22T22:55:40.978Z,55.30
2018-08-22T22:58:13.296Z,55.30
2018-08-22T23:00:43.082Z,55.30
2018-08-22T23:03:14.274Z,55.30
2018-08-22T23:05:50.582Z,55.30
2018-08-22T23:08:24.953Z,55.30
2018-08-22T23:10:54.129Z,55.30
2018-08-22T23:13:24.836Z,55.30
2018-08-22T23:15:55.009Z,55.30
2018-08-22T23:18:24.307Z,55.20
2018-08-22T23:21:00.078Z,55.20
2018-08-22T23:23:37.616Z,55.20
2018-08-22T23:26:18.743Z,55.20
2018-08-22T23:28:48.548Z,55.20
2018-08-22T23:31:19.492Z,55.20
2018-08-22T23:33:47.991Z,55.20
2018-08-22T23:36:16.436Z,55.20
2018-08-22T23:38:45.330Z,55.30
2018-08-22T23:41:14.922Z,55.10
2018-08-22T23:43:48.910Z,55.20
2018-08-22T23:46:18.532Z,55.20
2018-08-22T23:48:57.147Z,55.20
2018-08-22T23:51:27.209Z,55.20
2018-08-22T23:53:58.575Z,55.20
2018-08-22T23:56:29.169Z,55.20
2018-08-22T23:58:58.381Z,55.40
